createdAt,value
2018-04-04T00:01:16.472Z,13.90
2018-04-04T00:03:43.965Z,13.90
2018-04-04T00:06:11.474Z,13.90
2018-04-04T00:08:39.008Z,13.90
2018-04-04T00:11:07.267Z,13.90
2018-04-04T00:13:34.756Z,13.90
2018-04-04T00:16:03.010Z,13.90
2018-04-04T00:18:30.498Z,13.90
2018-04-04T00:20:57.999Z,13.90
2018-04-04T00:23:25.519Z,13.80
2018-04-04T00:25:53.015Z,13.80
2018-04-04T00:28:20.531Z,13.80
2018-04-04T00:30:48.782Z,13.80
2018-04-04T00:33:16.279Z,13.80
2018-04-04T00:35:43.766Z,13.80
2018-04-04T00:38:11.258Z,13.80
2018-04-04T00:40:38.775Z,13.70
2018-04-04T00:43:06.279Z,13.80
2018-04-04T00:45:33.754Z,13.70
2018-04-04T00:48:01.284Z,13.70
2018-04-04T00:50:28.757Z,13.70
2018-04-04T00:52:57.024Z,13.80
2018-04-04T00:55:24.528Z,13.80
2018-04-04T00:57:52.038Z,13.70
2018-04-04T01:00:19.524Z,13.70
2018-04-04T01:02:47.776Z,13.70
2018-04-04T01:05:15.267Z,13.70
2018-04-04T01:07:42.764Z,13.70
2018-04-04T01:10:10.246Z,13.60
2018-04-04T01:12:37.734Z,13.70
2018-04-04T01:15:05.975Z,13.70
2018-04-04T01:17:33.476Z,13.70
2018-04-04T01:20:00.971Z,13.70
2018-04-04T01:22:28.470Z,13.70
2018-04-04T01:24:56.731Z,13.80
2018-04-04T01:27:25.003Z,13.80
2018-04-04T01:29:52.485Z,13.80
2018-04-04T01:32:20.743Z,13.80
2018-04-04T01:34:48.213Z,13.80
2018-04-04T01:37:16.467Z,13.80
2018-04-04T01:39:43.961Z,13.80
2018-04-04T01:42:12.207Z,13.80
2018-04-04T01:44:40.387Z,13.80
2018-04-04T01:47:07.868Z,13.80
2018-04-04T01:49:35.363Z,13.80
2018-04-04T01:52:02.839Z,13.80
2018-04-04T01:54:31.215Z,13.80
2018-04-04T01:56:58.692Z,13.80
2018-04-04T01:59:26.187Z,13.80
2018-04-04T02:01:53.676Z,13.80
2018-04-04T02:04:21.163Z,13.70
2018-04-04T02:06:48.660Z,13.70
2018-04-04T02:09:16.150Z,13.70
2018-04-04T02:11:43.638Z,13.70
2018-04-04T02:14:11.124Z,13.70
2018-04-04T02:16:39.382Z,13.60
2018-04-04T02:19:07.638Z,13.60
2018-04-04T02:21:35.114Z,13.60
2018-04-04T02:24:03.373Z,13.60
2018-04-04T02:26:30.862Z,13.60
2018-04-04T02:28:59.123Z,13.50
2018-04-04T02:31:26.607Z,13.50
2018-04-04T02:33:54.872Z,13.40
2018-04-04T02:36:23.123Z,13.40
2018-04-04T02:38:50.601Z,13.40
2018-04-04T02:41:18.086Z,13.40
2018-04-04T02:43:45.587Z,13.30
2018-04-04T02:46:13.073Z,13.30
2018-04-04T02:48:40.558Z,13.30
2018-04-04T02:51:08.805Z,13.20
2018-04-04T02:53:36.300Z,13.20
2018-04-04T02:56:03.795Z,13.20
2018-04-04T02:58:31.279Z,13.10
2018-04-04T03:00:58.764Z,13.10
2018-04-04T03:03:27.026Z,13.10
2018-04-04T03:05:55.275Z,13.00
2018-04-04T03:08:22.776Z,13.00
2018-04-04T03:10:51.019Z,12.80
2018-04-04T03:13:18.511Z,12.80
2018-04-04T03:15:46.750Z,12.80
2018-04-04T03:18:14.242Z,12.80
2018-04-04T03:20:42.485Z,12.70
2018-04-04T03:23:09.972Z,12.70
2018-04-04T03:25:38.231Z,12.70
2018-04-04T03:28:05.722Z,12.70
2018-04-04T03:30:33.207Z,12.70
2018-04-04T03:33:00.704Z,12.60
2018-04-04T03:35:28.221Z,12.60
2018-04-04T03:37:55.715Z,12.60
2018-04-04T03:40:23.200Z,12.60
2018-04-04T03:42:51.459Z,12.60
2018-04-04T03:45:19.710Z,12.50
2018-04-04T03:47:47.208Z,12.50
2018-04-04T03:50:15.451Z,12.40
2018-04-04T03:52:43.342Z,12.40
2018-04-04T03:55:11.678Z,12.30
2018-04-04T03:57:39.165Z,12.30
2018-04-04T04:00:06.676Z,12.40
2018-04-04T04:02:34.182Z,12.30
2018-04-04T04:05:01.726Z,12.30
2018-04-04T04:07:29.217Z,12.20
2018-04-04T04:09:57.452Z,12.10
2018-04-04T04:12:24.967Z,12.10
2018-04-04T04:14:52.452Z,12.10
2018-04-04T04:17:19.940Z,12.10
2018-04-04T04:19:47.445Z,12.10
2018-04-04T04:22:14.943Z,12.10
2018-04-04T04:24:42.425Z,12.10
2018-04-04T04:27:09.940Z,12.00
2018-04-04T04:29:37.420Z,12.00
2018-04-04T04:32:04.912Z,12.00
2018-04-04T04:34:33.155Z,12.10
2018-04-04T04:37:00.654Z,12.10
2018-04-04T04:39:28.889Z,12.10
2018-04-04T04:41:56.382Z,12.10
2018-04-04T04:44:24.653Z,12.10
2018-04-04T04:46:52.134Z,12.00
2018-04-04T04:49:19.616Z,12.00
2018-04-04T04:51:47.103Z,12.00
2018-04-04T04:54:14.586Z,12.00
2018-04-04T04:56:42.078Z,11.90
2018-04-04T04:59:09.563Z,11.90
2018-04-04T05:01:37.068Z,11.90
2018-04-04T05:04:05.334Z,11.80
2018-04-04T05:06:32.830Z,11.80
2018-04-04T05:09:00.303Z,11.80
2018-04-04T05:11:27.813Z,11.80
2018-04-04T05:13:55.323Z,11.90
2018-04-04T05:16:22.816Z,11.90
2018-04-04T05:18:50.323Z,12.00
2018-04-04T05:21:17.833Z,12.00
2018-04-04T05:23:45.334Z,12.00
2018-04-04T05:26:12.827Z,12.00
2018-04-04T05:28:40.352Z,12.00
2018-04-04T05:31:07.834Z,12.00
2018-04-04T05:33:35.339Z,12.00
2018-04-04T05:36:02.840Z,12.10
2018-04-04T05:38:30.327Z,12.10
2018-04-04T05:40:57.803Z,12.10
2018-04-04T05:43:25.291Z,12.20
2018-04-04T05:45:53.548Z,12.30
2018-04-04T05:48:21.053Z,12.20
2018-04-04T05:50:48.531Z,12.30
2018-04-04T05:53:16.039Z,12.40
2018-04-04T05:55:44.287Z,12.60
2018-04-04T05:58:14.598Z,12.50
2018-04-04T06:00:42.098Z,12.60
2018-04-04T06:03:10.346Z,12.80
2018-04-04T06:05:38.530Z,12.70
2018-04-04T06:08:06.027Z,12.80
2018-04-04T06:10:33.530Z,12.90
2018-04-04T06:13:01.006Z,13.00
2018-04-04T06:15:29.505Z,13.10
2018-04-04T06:17:57.778Z,13.20
2018-04-04T06:20:26.034Z,13.30
2018-04-04T06:22:53.574Z,13.20
2018-04-04T06:25:21.081Z,13.40
2018-04-04T06:27:49.336Z,13.60
2018-04-04T06:30:17.658Z,13.60
2018-04-04T06:32:45.139Z,13.60
2018-04-04T06:35:12.631Z,13.70
2018-04-04T06:37:40.891Z,13.90
2018-04-04T06:40:08.370Z,13.90
2018-04-04T06:42:36.672Z,14.20
2018-04-04T06:45:04.145Z,14.20
2018-04-04T06:47:31.634Z,14.40
2018-04-04T06:49:59.184Z,14.50
2018-04-04T06:52:26.620Z,14.70
2018-04-04T06:54:54.100Z,14.70
2018-04-04T06:57:21.657Z,14.80
2018-04-04T06:59:49.146Z,15.00
2018-04-04T07:02:16.651Z,15.00
2018-04-04T07:04:44.143Z,15.10
2018-04-04T07:07:11.635Z,15.20
2018-04-04T07:09:40.011Z,15.50
2018-04-04T07:12:08.274Z,15.50
2018-04-04T07:14:35.744Z,15.50
2018-04-04T07:17:04.009Z,15.80
2018-04-04T07:19:31.560Z,15.80
2018-04-04T07:21:59.051Z,15.80
2018-04-04T07:24:26.536Z,16.00
2018-04-04T07:26:54.035Z,16.10
2018-04-04T07:29:21.523Z,16.30
2018-04-04T07:31:49.038Z,16.40
2018-04-04T07:34:16.543Z,16.50
2018-04-04T07:36:44.038Z,16.60
2018-04-04T07:39:11.536Z,16.70
2018-04-04T07:41:39.026Z,16.80
2018-04-04T07:44:06.522Z,16.80
2018-04-04T07:46:34.008Z,16.90
2018-04-04T07:49:01.504Z,17.00
2018-04-04T07:51:28.998Z,17.20
2018-04-04T07:53:56.512Z,17.30
2018-04-04T07:56:23.975Z,17.60
2018-04-04T07:58:51.475Z,17.80
2018-04-04T08:01:18.984Z,17.90
2018-04-04T08:03:46.498Z,18.10
2018-04-04T08:06:13.983Z,18.00
2018-04-04T08:08:42.254Z,18.30
2018-04-04T08:11:09.734Z,18.20
2018-04-04T08:13:39.128Z,18.30
2018-04-04T08:16:07.384Z,18.30
2018-04-04T08:18:34.872Z,18.30
2018-04-04T08:21:03.130Z,18.50
2018-04-04T08:23:30.602Z,18.50
2018-04-04T08:25:58.883Z,18.90
2018-04-04T08:28:26.375Z,18.90
2018-04-04T08:30:53.878Z,19.30
2018-04-04T08:33:21.348Z,19.50
2018-04-04T08:35:49.620Z,20.00
2018-04-04T08:38:17.873Z,20.20
2018-04-04T08:40:45.354Z,20.20
2018-04-04T08:43:13.634Z,20.20
2018-04-04T08:45:41.898Z,20.20
2018-04-04T08:48:09.372Z,20.20
2018-04-04T08:50:37.630Z,20.20
2018-04-04T08:53:05.128Z,20.20
2018-04-04T08:55:32.646Z,20.20
2018-04-04T08:58:00.136Z,20.40
2018-04-04T09:00:27.649Z,20.50
2018-04-04T09:02:55.132Z,21.00
2018-04-04T09:05:22.626Z,21.70
2018-04-04T09:07:50.115Z,22.70
2018-04-04T09:10:17.602Z,23.30
2018-04-04T09:12:45.201Z,24.00
2018-04-04T09:15:12.690Z,24.40
2018-04-04T09:17:40.183Z,24.70
2018-04-04T09:20:08.510Z,23.50
2018-04-04T09:22:36.068Z,23.50
2018-04-04T09:25:03.575Z,23.80
2018-04-04T09:27:31.161Z,23.50
2018-04-04T09:29:58.646Z,23.90
2018-04-04T09:32:26.159Z,24.90
2018-04-04T09:34:54.426Z,26.00
2018-04-04T09:37:21.915Z,26.00
2018-04-04T09:39:49.411Z,26.40
2018-04-04T09:42:16.886Z,26.90
2018-04-04T09:44:44.547Z,26.60
2018-04-04T09:47:12.035Z,27.00
2018-04-04T09:49:40.323Z,27.40
2018-04-04T09:52:08.578Z,27.50
2018-04-04T09:54:36.831Z,27.40
2018-04-04T09:57:04.319Z,27.30
2018-04-04T09:59:32.571Z,28.00
2018-04-04T10:02:00.853Z,28.00
2018-04-04T10:04:28.339Z,27.90
2018-04-04T10:06:56.598Z,27.80
2018-04-04T10:09:24.081Z,27.70
2018-04-04T10:11:51.589Z,27.70
2018-04-04T10:14:19.115Z,27.90
2018-04-04T10:16:46.613Z,28.00
2018-04-04T10:19:14.097Z,27.90
2018-04-04T10:21:41.610Z,27.70
2018-04-04T10:24:09.094Z,27.40
2018-04-04T10:26:37.402Z,27.80
2018-04-04T10:29:05.639Z,27.60
2018-04-04T10:31:33.130Z,27.60
2018-04-04T10:34:01.370Z,27.80
2018-04-04T10:36:28.868Z,27.80
2018-04-04T10:38:57.126Z,28.10
2018-04-04T10:41:24.638Z,28.00
2018-04-04T10:43:52.139Z,28.10
2018-04-04T10:46:19.660Z,28.10
2018-04-04T10:48:47.137Z,28.10
2018-04-04T10:51:14.655Z,28.10
2018-04-04T10:53:42.156Z,28.30
2018-04-04T10:56:09.647Z,28.40
2018-04-04T10:58:37.897Z,28.80
2018-04-04T11:01:05.416Z,28.70
2018-04-04T11:03:32.894Z,29.10
2018-04-04T11:06:00.409Z,28.80
2018-04-04T11:08:28.654Z,28.10
2018-04-04T11:10:56.146Z,28.00
2018-04-04T11:13:24.391Z,28.20
2018-04-04T11:15:51.903Z,28.20
2018-04-04T11:18:19.383Z,28.20
2018-04-04T11:20:46.883Z,28.20
2018-04-04T11:23:15.148Z,27.70
2018-04-04T11:25:42.699Z,27.70
2018-04-04T11:28:10.202Z,27.90
2018-04-04T11:30:37.737Z,28.40
2018-04-04T11:33:05.978Z,28.80
2018-04-04T11:35:33.466Z,28.70
2018-04-04T11:38:01.715Z,28.80
2018-04-04T11:40:29.202Z,28.80
2018-04-04T11:42:56.681Z,28.80
2018-04-04T11:45:24.922Z,28.60
2018-04-04T11:47:53.262Z,28.80
2018-04-04T11:50:20.791Z,28.80
2018-04-04T11:52:49.059Z,28.50
2018-04-04T11:55:17.334Z,28.50
2018-04-04T11:57:45.577Z,28.30
2018-04-04T12:00:13.083Z,28.30
2018-04-04T12:02:40.568Z,28.20
2018-04-04T12:05:08.102Z,28.20
2018-04-04T12:07:35.582Z,28.30
2018-04-04T12:10:03.111Z,28.70
2018-04-04T12:12:31.364Z,28.60
2018-04-04T12:14:58.875Z,28.60
2018-04-04T12:17:26.366Z,28.30
2018-04-04T12:19:53.889Z,28.50
2018-04-04T12:22:21.349Z,28.30
2018-04-04T12:24:48.873Z,28.10
2018-04-04T12:27:17.129Z,27.90
2018-04-04T12:29:44.638Z,27.90
2018-04-04T12:32:12.133Z,27.80
2018-04-04T12:34:39.616Z,27.90
2018-04-04T12:37:07.854Z,28.10
2018-04-04T12:39:35.363Z,28.10
2018-04-04T12:42:03.634Z,27.90
2018-04-04T12:44:31.899Z,28.10
2018-04-04T12:47:00.164Z,28.10
2018-04-04T12:49:27.682Z,28.10
2018-04-04T12:51:55.168Z,27.60
2018-04-04T12:54:22.664Z,27.50
2018-04-04T12:56:50.910Z,27.20
2018-04-04T12:59:18.499Z,27.20
2018-04-04T13:01:46.770Z,26.70
2018-04-04T13:04:15.044Z,26.70
2018-04-04T13:06:43.361Z,26.40
2018-04-04T13:09:20.712Z,26.40
2018-04-04T13:11:48.959Z,26.40
2018-04-04T13:14:16.451Z,26.40
2018-04-04T13:16:49.583Z,26.60
2018-04-04T13:19:17.063Z,26.60
2018-04-04T13:21:44.558Z,26.60
2018-04-04T13:24:12.844Z,26.70
2018-04-04T13:26:41.098Z,27.00
2018-04-04T13:29:08.674Z,27.00
2018-04-04T13:31:36.934Z,28.30
2018-04-04T13:34:05.194Z,29.10
2018-04-04T13:36:32.679Z,29.10
2018-04-04T13:39:00.979Z,30.80
2018-04-04T13:41:28.655Z,30.70
2018-04-04T13:43:56.160Z,31.40
2018-04-04T13:46:23.650Z,31.20
2018-04-04T13:48:51.177Z,30.40
2018-04-04T13:51:18.653Z,29.60
2018-04-04T13:53:46.940Z,28.50
2018-04-04T13:56:15.198Z,28.40
2018-04-04T13:58:42.758Z,28.40
2018-04-04T14:01:10.233Z,27.80
2018-04-04T14:03:38.632Z,27.10
2018-04-04T14:06:06.124Z,27.00
2018-04-04T14:08:33.612Z,27.10
2018-04-04T14:11:02.150Z,28.10
2018-04-04T14:13:29.638Z,29.00
2018-04-04T14:15:57.114Z,29.90
2018-04-04T14:18:25.398Z,27.80
2018-04-04T14:20:53.680Z,27.10
2018-04-04T14:23:21.176Z,27.10
2018-04-04T14:25:48.670Z,26.50
2018-04-04T14:28:17.855Z,25.60
2018-04-04T14:30:45.330Z,25.50
2018-04-04T14:33:12.821Z,25.40
2018-04-04T14:35:40.301Z,25.30
2018-04-04T14:38:07.793Z,25.10
2018-04-04T14:40:35.283Z,24.90
2018-04-04T14:43:03.557Z,24.80
2018-04-04T14:45:32.582Z,24.70
2018-04-04T14:48:00.107Z,24.70
2018-04-04T14:50:28.358Z,24.70
2018-04-04T14:52:55.848Z,24.70
2018-04-04T14:55:24.091Z,24.70
2018-04-04T14:57:51.586Z,24.70
2018-04-04T15:00:19.078Z,24.60
2018-04-04T15:02:46.587Z,24.50
2018-04-04T15:05:14.846Z,24.20
2018-04-04T15:07:42.347Z,24.20
2018-04-04T15:10:09.826Z,24.00
2018-04-04T15:12:37.314Z,23.90
2018-04-04T15:15:04.794Z,23.90
2018-04-04T15:17:33.070Z,23.90
2018-04-04T15:20:01.336Z,23.80
2018-04-04T15:22:28.853Z,23.80
2018-04-04T15:24:56.374Z,23.70
2018-04-04T15:27:24.633Z,23.50
2018-04-04T15:29:52.115Z,23.40
2018-04-04T15:32:19.606Z,23.40
2018-04-04T15:34:47.092Z,23.30
2018-04-04T15:37:14.610Z,23.20
2018-04-04T15:39:42.843Z,23.20
2018-04-04T15:42:10.349Z,23.20
2018-04-04T15:44:37.856Z,23.10
2018-04-04T15:47:05.346Z,23.10
2018-04-04T15:49:33.598Z,23.00
2018-04-04T15:52:01.100Z,22.90
2018-04-04T15:54:28.599Z,22.90
2018-04-04T15:56:56.110Z,22.90
2018-04-04T15:59:23.607Z,22.80
2018-04-04T16:01:51.193Z,22.90
2018-04-04T16:04:18.679Z,22.80
2018-04-04T16:06:46.158Z,22.70
2018-04-04T16:09:13.660Z,22.60
2018-04-04T16:11:42.661Z,22.50
2018-04-04T16:14:10.254Z,22.50
2018-04-04T16:16:37.808Z,22.50
2018-04-04T16:19:06.108Z,22.40
2018-04-04T16:21:33.651Z,22.30
2018-04-04T16:24:01.186Z,22.30
2018-04-04T16:26:29.442Z,22.20
2018-04-04T16:28:57.030Z,22.20
2018-04-04T16:31:25.827Z,22.20
2018-04-04T16:33:53.329Z,22.20
2018-04-04T16:36:20.812Z,22.10
2018-04-04T16:38:48.333Z,22.10
2018-04-04T16:41:15.809Z,22.00
2018-04-04T16:43:43.302Z,22.00
2018-04-04T16:46:11.573Z,21.90
2018-04-04T16:48:39.135Z,21.80
2018-04-04T16:51:06.649Z,21.80
2018-04-04T16:53:34.193Z,21.80
2018-04-04T16:56:01.689Z,21.80
2018-04-04T16:58:29.199Z,21.70
2018-04-04T17:00:56.742Z,21.70
2018-04-04T17:03:24.999Z,21.50
2018-04-04T17:05:52.478Z,21.50
2018-04-04T17:08:20.724Z,21.30
2018-04-04T17:10:48.317Z,21.30
2018-04-04T17:13:16.570Z,21.20
2018-04-04T17:15:44.042Z,21.20
2018-04-04T17:18:12.291Z,21.10
2018-04-04T17:20:39.788Z,21.10
2018-04-04T17:23:07.315Z,21.10
2018-04-04T17:25:34.809Z,21.00
2018-04-04T17:28:03.072Z,20.80
2018-04-04T17:30:31.383Z,20.80
2018-04-04T17:32:58.831Z,20.80
2018-04-04T17:35:26.313Z,20.70
2018-04-04T17:37:53.805Z,20.60
2018-04-04T17:40:21.282Z,20.60
2018-04-04T17:42:49.536Z,20.40
2018-04-04T17:45:17.031Z,20.40
2018-04-04T17:47:45.297Z,20.20
2018-04-04T17:50:13.557Z,20.10
2018-04-04T17:52:41.059Z,20.10
2018-04-04T17:55:08.547Z,20.00
2018-04-04T17:57:36.038Z,19.90
2018-04-04T18:00:04.282Z,19.80
2018-04-04T18:02:31.768Z,19.70
2018-04-04T18:04:59.254Z,19.80
2018-04-04T18:07:26.760Z,19.70
2018-04-04T18:09:54.270Z,19.60
2018-04-04T18:12:21.862Z,19.50
2018-04-04T18:14:49.332Z,19.40
2018-04-04T18:17:17.774Z,19.40
2018-04-04T18:19:45.263Z,19.30
2018-04-04T18:22:12.763Z,19.20
2018-04-04T18:24:41.009Z,19.00
2018-04-04T18:27:08.510Z,19.00
2018-04-04T18:29:36.761Z,18.90
2018-04-04T18:32:04.271Z,18.90
2018-04-04T18:34:31.763Z,18.90
2018-04-04T18:36:59.265Z,18.90
2018-04-04T18:39:27.522Z,18.80
2018-04-04T18:41:55.002Z,18.70
2018-04-04T18:44:22.534Z,18.70
2018-04-04T18:46:50.007Z,18.60
2018-04-04T18:49:18.331Z,18.60
2018-04-04T18:51:46.564Z,18.60
2018-04-04T18:54:14.827Z,18.60
2018-04-04T18:56:43.169Z,18.70
2018-04-04T18:59:10.746Z,18.60
2018-04-04T19:01:38.253Z,18.60
2018-04-04T19:04:05.742Z,18.60
2018-04-04T19:06:33.279Z,18.60
2018-04-04T19:09:00.762Z,18.50
2018-04-04T19:11:29.000Z,18.40
2018-04-04T19:13:56.491Z,18.40
2018-04-04T19:16:23.983Z,18.40
2018-04-04T19:18:52.259Z,18.30
2018-04-04T19:21:19.786Z,18.30
2018-04-04T19:23:47.287Z,18.30
2018-04-04T19:26:15.529Z,18.30
2018-04-04T19:28:43.058Z,18.30
2018-04-04T19:31:10.584Z,18.30
2018-04-04T19:33:38.855Z,18.10
2018-04-04T19:36:06.400Z,18.10
2018-04-04T19:38:33.920Z,18.10
2018-04-04T19:41:01.523Z,18.00
2018-04-04T19:43:29.036Z,18.00
2018-04-04T19:45:56.571Z,18.00
2018-04-04T19:48:24.836Z,18.00
2018-04-04T19:50:53.107Z,17.90
2018-04-04T19:53:20.618Z,17.90
2018-04-04T19:55:48.099Z,17.90
2018-04-04T19:58:15.586Z,17.80
2018-04-04T20:00:43.942Z,17.80
2018-04-04T20:03:11.506Z,17.80
2018-04-04T20:05:39.811Z,17.70
2018-04-04T20:08:08.066Z,17.60
2018-04-04T20:10:35.567Z,17.60
2018-04-04T20:13:03.087Z,17.40
2018-04-04T20:15:30.639Z,17.30
2018-04-04T20:17:58.145Z,17.20
2018-04-04T20:20:25.738Z,17.00
2018-04-04T20:22:53.992Z,16.90
2018-04-04T20:25:21.542Z,16.90
2018-04-04T20:27:49.063Z,16.80
2018-04-04T20:30:16.550Z,16.80
2018-04-04T20:32:44.045Z,16.80
2018-04-04T20:35:11.671Z,16.70
2018-04-04T20:37:39.186Z,16.60
2018-04-04T20:40:06.679Z,16.50
2018-04-04T20:42:34.207Z,16.40
2018-04-04T20:45:01.727Z,16.30
2018-04-04T20:47:29.232Z,16.20
2018-04-04T20:49:56.796Z,16.20
2018-04-04T20:52:25.078Z,16.00
2018-04-04T20:54:53.375Z,16.00
2018-04-04T20:57:20.926Z,16.00
2018-04-04T20:59:48.416Z,15.90
2018-04-04T21:02:15.918Z,15.80
2018-04-04T21:04:43.395Z,15.80
2018-04-04T21:07:11.671Z,15.70
2018-04-04T21:09:39.915Z,15.60
2018-04-04T21:12:07.408Z,15.60
2018-04-04T21:14:35.663Z,15.60
2018-04-04T21:17:03.146Z,15.50
2018-04-04T21:19:31.498Z,15.50
2018-04-04T21:21:59.009Z,15.50
2018-04-04T21:24:26.574Z,15.40
2018-04-04T21:26:54.096Z,15.50
2018-04-04T21:29:22.346Z,15.40
2018-04-04T21:31:49.916Z,15.40
2018-04-04T21:34:17.391Z,15.40
2018-04-04T21:36:45.638Z,15.30
2018-04-04T21:39:13.124Z,15.30
2018-04-04T21:41:41.381Z,15.40
2018-04-04T21:44:09.747Z,15.60
2018-04-04T21:46:37.232Z,15.60
2018-04-04T21:49:05.492Z,15.50
2018-04-04T21:51:32.970Z,15.40
2018-04-04T21:54:01.213Z,15.30
2018-04-04T21:56:28.705Z,15.30
2018-04-04T21:58:56.977Z,15.10
2018-04-04T22:01:25.245Z,15.00
2018-04-04T22:03:53.525Z,15.00
2018-04-04T22:06:21.791Z,14.90
2018-04-04T22:08:49.263Z,14.90
2018-04-04T22:11:17.542Z,15.00
2018-04-04T22:13:46.013Z,15.00
2018-04-04T22:16:14.282Z,15.00
2018-04-04T22:18:41.754Z,15.00
2018-04-04T22:21:09.354Z,15.00
2018-04-04T22:23:36.911Z,14.90
2018-04-04T22:26:04.394Z,14.90
2018-04-04T22:28:31.889Z,14.90
2018-04-04T22:31:00.161Z,14.70
2018-04-04T22:33:27.646Z,14.70
2018-04-04T22:35:55.138Z,14.70
2018-04-04T22:38:22.616Z,14.50
2018-04-04T22:40:50.095Z,14.40
2018-04-04T22:43:17.586Z,14.20
2018-04-04T22:45:45.076Z,13.90
2018-04-04T22:48:12.566Z,13.70
2018-04-04T22:50:40.059Z,13.60
2018-04-04T22:53:07.543Z,13.60
2018-04-04T22:55:35.026Z,13.50
2018-04-04T22:58:02.515Z,13.60
2018-04-04T23:00:30.782Z,13.60
2018-04-04T23:03:03.150Z,13.50
2018-04-04T23:05:31.508Z,13.50
2018-04-04T23:07:59.085Z,13.50
2018-04-04T23:10:27.436Z,13.40
2018-04-04T23:12:55.032Z,13.40
2018-04-04T23:15:23.393Z,13.30
2018-04-04T23:17:50.965Z,13.30
2018-04-04T23:20:19.339Z,13.20
2018-04-04T23:22:47.749Z,13.10
2018-04-04T23:25:15.384Z,13.10
2018-04-04T23:27:43.735Z,12.90
2018-04-04T23:30:11.322Z,12.90
2018-04-04T23:32:39.700Z,12.90
2018-04-04T23:35:08.066Z,12.80
2018-04-04T23:37:35.634Z,12.80
2018-04-04T23:40:03.224Z,12.80
2018-04-04T23:42:30.809Z,12.70
2018-04-04T23:44:58.394Z,12.70
2018-04-04T23:47:25.973Z,12.60
2018-04-04T23:49:53.560Z,12.60
2018-04-04T23:52:21.145Z,12.60
2018-04-04T23:54:48.728Z,12.50
2018-04-04T23:57:16.302Z,12.40
2018-04-04T23:59:43.896Z,12.50
